Time;durP1;ratioP1;P1;durP2;ratioP2;P2;SDS_P1;SDS_P2;PMS_P1;PMS_P2;Temp;Humidity;BMP_temperature;BMP_pressure;BME280_temperature;BME280_humidity;BME280_pressure;Samples;Min_cycle;Max_cycle;Signal;HPM_P1;HPM_P2
2023/10/11 00:02:57;;;;;;;10.93;6.45;;;;;;;17.70;64.64;101335.84;5110993;28;20138;-66
2023/10/11 00:05:23;;;;;;;13.20;6.28;;;;;;;17.70;64.42;101335.84;5092821;28;20027;-65
2023/10/11 00:07:49;;;;;;;12.23;7.07;;;;;;;17.66;64.50;101335.28;5103527;28;20044;-65
2023/10/11 00:10:22;;;;;;;10.05;6.80;;;;;;;17.70;64.26;101330.47;5090334;28;20024;-66
2023/10/11 00:12:50;;;;;;;13.27;7.32;;;;;;;17.64;64.34;101336.38;5107365;28;20032;-65
2023/10/11 00:15:16;;;;;;;11.00;6.63;;;;;;;17.54;64.76;101333.63;5110406;28;20032;-65
2023/10/11 00:17:45;;;;;;;11.25;6.50;;;;;;;17.53;64.64;101325.69;5108996;28;20114;-65
2023/10/11 00:22:56;;;;;;;9.80;6.78;;;;;;;17.54;64.51;101332.78;5110972;28;20081;-65
2023/10/11 00:25:30;;;;;;;10.25;6.30;;;;;;;17.55;64.52;101327.25;5110256;28;20095;-66
2023/10/11 00:27:59;;;;;;;11.35;6.30;;;;;;;17.52;64.89;101329.34;5106253;28;20051;-65
2023/10/11 00:30:30;;;;;;;10.65;6.88;;;;;;;17.41;64.96;101320.38;5108320;28;20106;-66
2023/10/11 00:32:58;;;;;;;10.63;6.60;;;;;;;17.46;64.80;101330.72;5109727;28;20062;-65
2023/10/11 00:35:27;;;;;;;8.43;6.03;;;;;;;17.43;64.79;101325.63;5100118;28;20055;-65
2023/10/11 00:37:54;;;;;;;9.82;6.53;;;;;;;17.49;64.84;101334.00;5088119;28;20122;-65
2023/10/11 00:40:32;;;;;;;9.65;6.90;;;;;;;17.47;64.73;101322.53;5110367;28;20038;-65
2023/10/11 00:42:57;;;;;;;13.05;6.78;;;;;;;17.39;65.28;101325.03;5108013;28;20023;-65
2023/10/11 00:45:26;;;;;;;10.68;6.35;;;;;;;17.37;64.97;101315.38;5089797;28;20035;-65
2023/10/11 00:47:53;;;;;;;10.50;6.40;;;;;;;17.30;65.75;101316.88;5110062;28;20076;-66
2023/10/11 00:50:30;;;;;;;10.57;6.90;;;;;;;17.36;65.62;101327.97;5110206;28;20020;-66
2023/10/11 00:52:57;;;;;;;9.38;6.70;;;;;;;17.29;65.77;101329.44;5105853;28;20028;-65
2023/10/11 00:55:23;;;;;;;14.25;7.00;;;;;;;17.28;65.97;101324.22;5109613;28;20074;-65
2023/10/11 00:57:49;;;;;;;9.05;6.72;;;;;;;17.29;65.85;101323.22;5088133;28;20458;-66
2023/10/11 01:00:21;;;;;;;12.65;6.75;;;;;;;17.17;66.72;101322.41;5060081;28;20083;-66
2023/10/11 01:02:50;;;;;;;14.35;7.35;;;;;;;17.17;66.74;101319.72;5101851;28;20039;-65
2023/10/11 01:05:18;;;;;;;12.63;6.88;;;;;;;17.07;67.13;101321.50;5109868;28;20019;-65
2023/10/11 01:07:44;;;;;;;13.37;7.33;;;;;;;17.13;66.62;101323.66;5105751;28;20028;-66
2023/10/11 01:10:13;;;;;;;11.52;7.38;;;;;;;17.10;66.92;101326.63;5112147;28;20529;-65
2023/10/11 01:12:41;;;;;;;11.27;7.43;;;;;;;16.97;67.19;101313.31;5092423;28;20028;-66
2023/10/11 01:15:11;;;;;;;11.77;7.70;;;;;;;17.01;67.52;101317.47;5113716;28;20023;-65
2023/10/11 01:17:40;;;;;;;10.55;6.80;;;;;;;17.03;67.26;101315.53;5094928;28;20032;-65
2023/10/11 01:20:17;;;;;;;17.08;7.40;;;;;;;16.95;67.67;101317.97;5106294;28;20024;-65
2023/10/11 01:22:46;;;;;;;9.75;6.53;;;;;;;16.90;67.86;101317.50;5114112;28;20023;-65
2023/10/11 01:25:18;;;;;;;13.13;6.40;;;;;;;16.92;67.75;101313.72;5113434;28;20458;-65
2023/10/11 01:27:47;;;;;;;10.95;7.22;;;;;;;16.85;68.03;101312.50;5095387;28;20030;-65
2023/10/11 01:30:14;;;;;;;11.05;7.45;;;;;;;16.80;68.19;101314.72;5091640;28;20059;-65
2023/10/11 01:32:45;;;;;;;14.20;7.20;;;;;;;16.75;68.74;101316.91;5113291;28;20024;-65
2023/10/11 01:35:20;;;;;;;12.25;7.38;;;;;;;16.76;68.33;101315.94;5106840;28;20169;-65
2023/10/11 01:37:49;;;;;;;10.30;6.70;;;;;;;16.70;68.47;101301.13;5104337;28;20020;-65
2023/10/11 01:40:20;;;;;;;;;;;;;;;16.89;67.92;101303.22;5092060;28;20045;-65
2023/10/11 01:42:51;;;;;;;8.50;6.63;;;;;;;16.60;69.36;101300.19;5110938;28;20018;-65
2023/10/11 01:45:18;;;;;;;12.32;7.38;;;;;;;16.76;68.44;101306.03;5092338;28;20035;-65
2023/10/11 01:47:50;;;;;;;11.18;6.97;;;;;;;16.62;68.75;101287.50;5105313;28;20039;-65
2023/10/11 01:50:16;;;;;;;12.55;7.53;;;;;;;16.58;69.09;101296.78;5111275;28;20031;-65
2023/10/11 01:52:43;;;;;;;10.88;6.65;;;;;;;16.58;69.24;101294.09;5077034;28;20031;-65
2023/10/11 01:55:18;;;;;;;9.38;6.85;;;;;;;16.46;69.47;101282.50;5107251;28;20047;-65
2023/10/11 01:57:48;;;;;;;12.32;7.13;;;;;;;16.46;69.96;101290.56;5091216;28;20494;-66
2023/10/11 02:00:15;;;;;;;12.57;7.30;;;;;;;16.50;69.86;101293.84;5106834;28;20036;-65
2023/10/11 02:02:55;;;;;;;13.23;7.43;;;;;;;16.38;70.55;101279.59;5104349;28;20034;-65
2023/10/11 02:05:24;;;;;;;14.13;6.72;;;;;;;16.39;70.06;101281.31;5108059;28;20474;-66
2023/10/11 02:07:50;;;;;;;12.68;7.35;;;;;;;16.29;71.07;101274.97;5093340;28;20039;-65
2023/10/11 02:10:25;;;;;;;12.00;7.28;;;;;;;16.35;70.64;101271.78;5110907;28;20023;-65
2023/10/11 02:12:51;;;;;;;8.85;6.78;;;;;;;16.29;70.88;101264.22;5112996;28;20076;-66
2023/10/11 02:15:28;;;;;;;11.40;7.72;;;;;;;16.27;71.00;101267.03;5112304;28;20371;-65
2023/10/11 02:17:54;;;;;;;9.00;7.28;;;;;;;16.19;71.50;101261.44;5107965;28;20035;-66
2023/10/11 02:20:25;;;;;;;11.77;7.57;;;;;;;16.18;71.23;101249.00;5092556;28;20019;-65
2023/10/11 02:22:52;;;;;;;12.95;7.35;;;;;;;16.23;71.64;101259.34;5110039;28;20051;-65
2023/10/11 02:25:19;;;;;;;13.73;7.40;;;;;;;16.17;71.59;101254.47;5110596;28;20027;-66
2023/10/11 02:27:45;;;;;;;13.60;7.25;;;;;;;16.15;71.97;101248.38;5085303;28;20041;-65
2023/10/11 02:30:19;;;;;;;11.98;7.47;;;;;;;16.14;71.87;101250.22;5112579;28;20076;-65
2023/10/11 02:32:44;;;;;;;10.88;7.35;;;;;;;16.09;71.94;101242.53;5106240;28;20031;-65
2023/10/11 02:35:13;;;;;;;11.15;7.20;;;;;;;16.16;71.73;101239.38;5109557;28;20038;-65
2023/10/11 02:37:39;;;;;;;11.00;7.20;;;;;;;16.07;72.18;101251.69;5086455;28;20027;-66
2023/10/11 02:40:07;;;;;;;15.93;7.40;;;;;;;16.06;71.90;101244.59;5091722;28;20066;-66
2023/10/11 02:42:36;;;;;;;11.02;7.35;;;;;;;16.05;72.35;101248.25;5104476;28;20482;-66
2023/10/11 02:45:08;;;;;;;13.23;7.28;;;;;;;15.96;73.09;101257.91;5104127;28;20024;-65
2023/10/11 02:47:35;;;;;;;11.38;7.35;;;;;;;15.90;73.61;101250.34;5088542;28;20031;-65
2023/10/11 02:50:05;;;;;;;12.38;7.78;;;;;;;15.94;73.67;101253.63;5108480;28;20551;-65
2023/10/11 02:52:35;;;;;;;13.48;8.23;;;;;;;15.94;73.44;101248.25;5109264;28;20073;-66
2023/10/11 02:57:44;;;;;;;14.13;7.55;;;;;;;15.87;73.59;101240.69;5105200;28;20454;-66
2023/10/11 03:00:21;;;;;;;12.65;7.18;;;;;;;15.85;74.07;101245.34;5107862;28;20055;-66
2023/10/11 03:02:56;;;;;;;11.00;7.95;;;;;;;15.92;73.55;101244.88;5105831;28;20028;-65
2023/10/11 03:05:27;;;;;;;13.70;7.68;;;;;;;15.85;74.16;101250.72;5105695;28;20024;-66
2023/10/11 03:08:13;;;;;;;12.00;7.82;;;;;;;15.82;74.53;101245.56;5089703;28;20501;-66
2023/10/11 03:10:53;;;;;;;11.38;7.57;;;;;;;15.83;74.27;101251.81;5100227;28;20038;-65
2023/10/11 03:13:29;;;;;;;12.73;7.47;;;;;;;15.87;74.42;101248.75;5107354;28;20387;-65
2023/10/11 03:15:58;;;;;;;10.98;7.75;;;;;;;15.79;75.02;101243.13;5107052;28;20023;-65
2023/10/11 03:18:31;;;;;;;12.90;7.13;;;;;;;15.82;74.86;101226.78;5098599;28;20123;-65
2023/10/11 03:21:09;;;;;;;13.98;8.10;;;;;;;15.69;75.64;101230.56;5107531;28;20057;-65
2023/10/11 03:23:43;;;;;;;11.73;7.78;;;;;;;15.70;75.58;101227.75;5071596;28;20046;-65
2023/10/11 03:26:31;;;;;;;10.43;7.57;;;;;;;15.60;76.22;101219.56;5110727;28;20047;-65
2023/10/11 03:29:03;;;;;;;12.60;7.82;;;;;;;15.65;76.55;101224.56;5102739;28;20031;-66
2023/10/11 03:31:31;;;;;;;16.13;8.82;;;;;;;15.70;76.02;101227.75;5111340;28;20027;-66
2023/10/11 03:34:19;;;;;;;11.77;7.97;;;;;;;15.74;76.10;101231.94;5081332;28;20023;-65
2023/10/11 03:36:51;;;;;;;11.57;7.93;;;;;;;15.66;76.14;101224.44;5100385;28;20062;-66
2023/10/11 03:39:28;;;;;;;12.23;8.00;;;;;;;15.67;76.24;101227.97;5103453;28;20031;-66
2023/10/11 03:42:07;;;;;;;10.82;7.88;;;;;;;15.61;76.71;101228.44;5108836;28;20031;-65
2023/10/11 03:44:36;;;;;;;13.63;8.15;;;;;;;15.65;76.74;101221.91;5103679;28;20063;-66
2023/10/11 03:47:08;;;;;;;13.40;8.27;;;;;;;15.54;77.24;101219.19;5084123;28;20386;-66
2023/10/11 03:52:04;;;;;;;12.23;8.55;;;;;;;15.52;77.84;101218.44;5105415;28;20039;-65
2023/10/11 03:54:30;;;;;;;11.93;8.20;;;;;;;15.43;78.11;101207.47;5104870;28;20020;-66
2023/10/11 03:56:55;;;;;;;13.32;8.88;;;;;;;15.51;77.76;101214.91;5107230;28;20394;-65
2023/10/11 03:59:28;;;;;;;11.23;8.10;;;;;;;15.30;78.42;101187.97;5108507;28;20209;-65
2023/10/11 04:01:55;;;;;;;12.88;8.88;;;;;;;15.50;78.38;101213.22;5087767;28;20085;-65
2023/10/11 04:04:21;;;;;;;16.10;9.00;;;;;;;15.48;78.41;101208.94;5087413;28;20072;-65
2023/10/11 04:06:57;;;;;;;13.35;8.18;;;;;;;15.48;78.53;101215.16;5110296;28;20374;-65
2023/10/11 04:09:37;;;;;;;13.32;8.18;;;;;;;15.41;79.05;101205.88;5108597;28;20626;-65
2023/10/11 04:12:10;;;;;;;12.13;8.68;;;;;;;15.49;78.74;101214.19;5092898;28;20032;-65
2023/10/11 04:14:40;;;;;;;11.35;9.45;;;;;;;15.48;78.87;101208.94;5109988;28;20031;-65
2023/10/11 04:19:53;;;;;;;13.35;9.20;;;;;;;15.41;79.26;101192.47;5108522;28;20884;-65
2023/10/11 04:22:24;;;;;;;14.07;9.73;;;;;;;15.46;79.48;101192.97;5092247;28;20034;-66
2023/10/11 04:24:53;;;;;;;11.57;8.93;;;;;;;15.47;79.21;101193.81;5108663;28;20023;-66
2023/10/11 04:29:50;;;;;;;12.32;9.40;;;;;;;15.45;79.49;101194.81;5108641;28;20038;-65
2023/10/11 04:35:11;;;;;;;18.65;9.80;;;;;;;15.34;80.03;101193.94;5098460;28;20046;-66
2023/10/11 04:37:44;;;;;;;15.25;9.73;;;;;;;15.31;80.38;101188.81;5104556;28;20038;-66
2023/10/11 04:40:23;;;;;;;14.68;9.75;;;;;;;15.33;80.34;101190.41;5100465;28;20475;-65
2023/10/11 04:43:04;;;;;;;11.77;9.07;;;;;;;15.29;80.66;101196.94;5105382;28;20443;-65
2023/10/11 04:45:43;;;;;;;14.85;9.90;;;;;;;15.30;80.33;101196.00;5093043;28;20427;-65
2023/10/11 04:48:14;;;;;;;14.00;9.35;;;;;;;15.25;80.47;101194.66;5109290;28;20047;-65
2023/10/11 04:50:47;;;;;;;11.43;10.18;;;;;;;15.16;80.92;101201.56;5113469;28;20030;-65
2023/10/11 04:53:17;;;;;;;12.18;9.25;;;;;;;15.20;81.16;101203.03;5091677;28;20027;-65
2023/10/11 04:55:59;;;;;;;15.13;9.40;;;;;;;15.19;80.94;101194.13;5108162;28;20035;-65
2023/10/11 04:59:05;;;;;;;12.80;9.27;;;;;;;15.21;81.13;101191.34;5091363;28;20027;-65
2023/10/11 05:01:24;;;;;;;11.20;9.38;;;;;;;15.17;81.04;101201.44;5109269;28;20371;-65
2023/10/11 05:03:58;;;;;;;14.35;9.93;;;;;;;15.16;81.25;101204.25;5095769;28;20020;-65
2023/10/11 05:06:53;;;;;;;16.15;9.73;;;;;;;14.97;81.75;101194.94;5107130;28;20016;-65
2023/10/11 05:11:44;;;;;;;17.77;10.82;;;;;;;15.05;82.08;101193.50;5107935;28;20451;-65
2023/10/11 05:14:37;;;;;;;14.55;10.35;;;;;;;15.09;82.23;101203.00;5105222;28;20020;-65
2023/10/11 05:19:46;;;;;;;14.63;10.18;;;;;;;15.01;82.49;101203.59;5111813;28;20447;-65
2023/10/11 05:33:14;;;;;;;12.82;10.48;;;;;;;14.94;83.61;101216.59;5113417;28;20035;-65
2023/10/11 05:52:07;;;;;;;15.20;10.65;;;;;;;15.01;84.02;101203.59;5108010;28;20435;-65
2023/10/11 05:54:36;;;;;;;17.23;10.50;;;;;;;14.99;84.68;101213.56;5088175;28;20159;-64
2023/10/11 05:57:04;;;;;;;16.73;10.82;;;;;;;14.98;84.44;101218.06;5092725;28;20047;-65
2023/10/11 05:59:37;;;;;;;13.57;10.50;;;;;;;14.95;85.00;101217.44;5112191;28;20027;-65
2023/10/11 06:02:13;;;;;;;13.13;9.98;;;;;;;14.97;85.18;101228.88;5107017;28;20071;-65
2023/10/11 06:04:42;;;;;;;17.30;11.43;;;;;;;14.93;85.24;101225.59;5109832;28;20023;-65
2023/10/11 06:07:13;;;;;;;19.52;11.05;;;;;;;14.92;85.04;101223.03;5112851;28;20034;-66
2023/10/11 06:09:43;;;;;;;15.05;11.48;;;;;;;14.88;85.13;101213.50;5107613;28;20031;-66
2023/10/11 06:12:33;;;;;;;18.38;11.48;;;;;;;14.98;84.95;101225.25;5110287;28;20545;-65
2023/10/11 06:14:57;;;;;;;15.73;10.80;;;;;;;14.96;85.27;101221.84;5112277;28;20032;-66
2023/10/11 06:17:41;;;;;;;17.17;11.20;;;;;;;14.93;85.57;101211.34;5094699;28;20066;-65
2023/10/11 06:20:26;;;;;;;15.70;11.00;;;;;;;14.98;85.46;101217.22;5112033;28;20474;-65
2023/10/11 06:22:53;;;;;;;15.48;11.38;;;;;;;14.98;85.55;101206.50;5094332;28;20035;-66
2023/10/11 06:28:13;;;;;;;15.65;11.45;;;;;;;15.04;85.70;101208.72;5112566;28;20038;-65
2023/10/11 06:30:47;;;;;;;15.15;10.45;;;;;;;15.10;85.48;101208.25;5094625;28;20073;-65
2023/10/11 06:33:13;;;;;;;17.17;11.27;;;;;;;15.13;85.35;101215.19;5110068;28;20103;-65
2023/10/11 06:35:45;;;;;;;18.23;10.48;;;;;;;15.06;85.72;101195.19;5099420;28;20111;-65
2023/10/11 06:38:13;;;;;;;12.95;10.45;;;;;;;15.11;85.75;101212.63;5083171;28;20513;-65
2023/10/11 06:40:47;;;;;;;13.57;11.13;;;;;;;15.15;85.54;101214.13;5109091;28;20019;-65
2023/10/11 06:43:13;;;;;;;14.05;10.20;;;;;;;15.13;85.63;101215.19;5085605;28;20023;-65
2023/10/11 06:45:41;;;;;;;15.73;11.02;;;;;;;15.22;85.42;101220.69;5106685;28;20024;-65
2023/10/11 06:48:10;;;;;;;12.80;11.38;;;;;;;15.19;85.72;101212.03;5106733;28;20031;-65
2023/10/11 06:50:37;;;;;;;15.38;10.73;;;;;;;15.25;85.35;101213.41;5082073;28;20059;-65
2023/10/11 06:53:13;;;;;;;14.40;10.90;;;;;;;15.22;85.85;101218.03;5102237;28;20534;-65
2023/10/11 06:55:40;;;;;;;17.73;11.20;;;;;;;15.24;86.07;101233.16;5095185;28;20514;-64
2023/10/11 06:58:16;;;;;;;15.57;11.25;;;;;;;15.29;85.78;101233.63;5098252;28;20081;-65
2023/10/11 07:00:47;;;;;;;13.52;10.63;;;;;;;15.32;85.06;101223.50;5112005;28;20043;-65
2023/10/11 07:05:46;;;;;;;14.80;10.00;;;;;;;15.39;85.31;101231.97;5102742;28;20080;-65
2023/10/11 07:08:18;;;;;;;17.00;11.35;;;;;;;15.43;85.21;101228.06;5103289;28;20035;-65
2023/10/11 07:11:10;;;;;;;14.68;10.95;;;;;;;15.47;85.33;101239.38;5088933;28;20145;-65
2023/10/11 07:16:31;;;;;;;17.70;10.68;;;;;;;15.55;84.82;101247.69;5101733;28;20092;-65
2023/10/11 07:18:59;;;;;;;14.30;10.57;;;;;;;15.59;84.61;101257.22;5088078;28;20035;-65
2023/10/11 07:21:27;;;;;;;16.08;11.18;;;;;;;15.59;84.77;101263.44;5089043;28;20023;-65
2023/10/11 07:26:23;;;;;;;17.23;10.68;;;;;;;15.67;85.08;101277.13;5110929;28;20058;-65
2023/10/11 07:28:52;;;;;;;18.80;11.57;;;;;;;15.76;84.11;101285.44;5111241;28;20470;-65
2023/10/11 07:31:21;;;;;;;18.45;11.73;;;;;;;15.76;84.00;101286.28;5111397;28;20027;-66
2023/10/11 07:33:50;;;;;;;19.88;11.30;;;;;;;15.81;83.73;101280.56;5095933;28;20055;-65
2023/10/11 07:36:18;;;;;;;16.80;11.13;;;;;;;15.85;83.80;101290.94;5104806;28;20024;-65
2023/10/11 07:38:54;;;;;;;20.33;11.77;;;;;;;15.85;83.91;101282.91;5079597;28;20016;-65
2023/10/11 07:41:28;;;;;;;15.10;11.35;;;;;;;15.88;83.61;101279.09;5092608;28;20507;-65
2023/10/11 07:43:56;;;;;;;14.27;11.48;;;;;;;15.95;82.92;101279.50;5092072;28;20024;-65
2023/10/11 07:46:22;;;;;;;16.77;11.10;;;;;;;16.01;83.75;101284.38;5090517;28;20031;-65
2023/10/11 07:48:48;;;;;;;16.15;12.32;;;;;;;16.03;83.15;101277.91;5107699;28;20027;-66
2023/10/11 07:51:14;;;;;;;16.00;12.30;;;;;;;16.06;82.94;101269.63;5108603;28;20032;-65
2023/10/11 07:53:43;;;;;;;18.58;11.75;;;;;;;16.12;83.21;101285.22;5075356;28;20020;-66
2023/10/11 07:56:10;;;;;;;16.58;12.00;;;;;;;16.13;83.36;101281.56;5110414;28;20048;-64
2023/10/11 07:58:45;;;;;;;17.40;12.57;;;;;;;16.19;83.40;101274.00;5110608;28;20042;-65
2023/10/11 08:01:15;;;;;;;22.77;11.88;;;;;;;16.25;83.34;101279.72;5090124;28;20042;-65
2023/10/11 08:03:44;;;;;;;20.83;12.25;;;;;;;16.34;83.18;101294.25;5095946;28;20585;-66
2023/10/11 08:06:12;;;;;;;18.25;11.38;;;;;;;16.34;83.12;101262.88;5072742;28;20046;-65
2023/10/11 08:08:38;;;;;;;19.83;12.43;;;;;;;16.50;82.91;101269.69;5101992;28;21262;-66
2023/10/11 08:11:18;;;;;;;16.75;11.85;;;;;;;16.60;82.31;101270.66;5109143;28;20027;-65
2023/10/11 08:13:45;;;;;;;18.98;12.68;;;;;;;16.65;82.15;101270.25;5104698;28;20031;-65
2023/10/11 08:16:17;;;;;;;24.17;12.63;;;;;;;16.62;82.17;101273.19;5106945;28;20370;-65
2023/10/11 08:18:48;;;;;;;21.27;12.32;;;;;;;16.66;82.39;101261.25;5106901;28;20110;-66
2023/10/11 08:21:16;;;;;;;19.42;12.60;;;;;;;16.68;82.12;101281.63;5101053;28;20068;-65
2023/10/11 08:23:42;;;;;;;20.10;12.52;;;;;;;16.73;82.14;101275.88;5108705;28;20098;-65
2023/10/11 08:26:14;;;;;;;17.10;12.00;;;;;;;16.71;82.04;101293.97;5100608;28;20149;-65
2023/10/11 08:28:47;;;;;;;22.48;13.20;;;;;;;16.69;82.44;101287.84;5103347;28;20108;-65
2023/10/11 08:31:13;;;;;;;20.38;11.90;;;;;;;16.68;83.47;101295.06;5103464;28;20043;-65
2023/10/11 08:33:39;;;;;;;20.88;11.77;;;;;;;16.66;84.00;101288.94;5102163;28;20023;-65
2023/10/11 08:36:10;;;;;;;20.58;12.30;;;;;;;16.72;82.96;101298.34;5103677;28;20076;-65
2023/10/11 08:38:35;;;;;;;20.38;12.38;;;;;;;16.76;82.95;101286.38;5100514;28;20043;-65
2023/10/11 08:41:01;;;;;;;15.90;11.40;;;;;;;16.82;83.06;101293.94;5075466;28;20032;-65
2023/10/11 08:43:29;;;;;;;18.95;12.20;;;;;;;16.86;83.96;101294.56;5092654;28;20061;-65
2023/10/11 08:46:01;;;;;;;18.45;11.73;;;;;;;16.91;83.58;101290.53;5091263;28;20085;-65
2023/10/11 08:48:29;;;;;;;18.70;12.45;;;;;;;16.95;83.82;101296.50;5089247;28;20032;-65
2023/10/11 08:50:55;;;;;;;20.25;12.15;;;;;;;17.07;83.34;101292.78;5064875;28;20029;-65
2023/10/11 08:53:24;;;;;;;18.02;11.82;;;;;;;17.24;83.75;101292.22;5092521;28;20686;-65
2023/10/11 08:55:59;;;;;;;16.90;12.40;;;;;;;17.34;83.05;101289.59;5106645;28;20048;-66
2023/10/11 08:58:29;;;;;;;18.15;11.75;;;;;;;17.32;82.70;101285.31;5056068;28;20169;-66
2023/10/11 09:01:01;;;;;;;19.65;11.48;;;;;;;17.42;83.05;101303.25;5071076;28;20033;-66
2023/10/11 09:03:31;;;;;;;19.40;11.80;;;;;;;17.49;82.73;101308.94;5071607;28;20096;-66
2023/10/11 09:06:00;;;;;;;19.73;12.18;;;;;;;17.63;83.03;101308.63;5110034;28;20027;-65
2023/10/11 09:08:31;;;;;;;23.48;12.30;;;;;;;17.63;82.44;101305.09;5093458;28;20027;-66
2023/10/11 09:11:14;;;;;;;21.45;13.32;;;;;;;17.70;82.76;101322.41;5111397;28;20073;-66
2023/10/11 09:13:39;;;;;;;22.48;13.77;;;;;;;17.67;83.39;101306.53;5111719;28;20489;-66
2023/10/11 09:16:12;;;;;;;29.55;13.52;;;;;;;17.74;83.35;101312.25;5111028;28;20019;-66
2023/10/11 09:18:39;;;;;;;20.50;13.55;;;;;;;17.71;83.50;101311.53;5111234;28;20024;-66
2023/10/11 09:21:15;;;;;;;21.15;14.75;;;;;;;17.66;84.45;101294.06;5111308;28;20501;-66
2023/10/11 09:23:47;;;;;;;23.17;16.30;;;;;;;17.62;85.28;101292.63;5093079;28;20036;-66
2023/10/11 09:26:20;;;;;;;23.45;15.63;;;;;;;17.61;85.36;101297.16;5111019;28;20024;-65
2023/10/11 09:28:56;;;;;;;22.23;16.85;;;;;;;17.67;85.10;101317.28;5093091;28;20055;-66
2023/10/11 09:31:23;;;;;;;24.67;17.02;;;;;;;17.60;86.16;101316.97;5094038;28;20023;-65
2023/10/11 09:34:18;;;;;;;24.73;16.77;;;;;;;17.57;86.52;101317.22;5114749;28;20031;-66
2023/10/11 09:36:34;;;;;;;21.70;16.73;;;;;;;17.60;86.43;101316.13;5114261;28;20040;-66
2023/10/11 09:39:03;;;;;;;24.73;16.70;;;;;;;17.62;87.40;101315.00;5115285;28;20088;-65
2023/10/11 09:41:38;;;;;;;18.88;16.80;;;;;;;17.67;87.62;101322.66;5096700;28;20019;-65
2023/10/11 09:44:05;;;;;;;24.27;18.08;;;;;;;17.68;87.88;101336.00;5114817;28;20030;-65
2023/10/11 09:46:33;;;;;;;26.63;18.08;;;;;;;17.69;87.54;101329.63;5114607;28;20073;-65
2023/10/11 09:49:02;;;;;;;22.27;17.50;;;;;;;17.65;87.88;101330.88;5099162;28;20526;-66
2023/10/11 09:51:29;;;;;;;20.65;18.38;;;;;;;17.66;88.23;101324.50;5076490;28;20024;-66
2023/10/11 09:54:01;;;;;;;26.67;18.98;;;;;;;17.68;89.00;101325.25;5094610;28;20035;-66
2023/10/11 09:56:40;;;;;;;28.52;18.92;;;;;;;17.67;88.65;101314.59;5101669;28;20107;-65
2023/10/11 09:59:35;;;;;;;26.40;20.02;;;;;;;17.69;89.50;101329.63;5114509;28;20475;-66
2023/10/11 10:02:14;;;;;;;29.80;20.95;;;;;;;17.71;90.19;101321.44;5110408;28;20043;-65
2023/10/11 10:04:51;;;;;;;27.35;21.42;;;;;;;17.74;90.78;101323.03;5096068;28;20099;-66
2023/10/11 10:07:24;;;;;;;22.15;19.13;;;;;;;17.71;90.86;101327.66;5114321;28;20027;-66
2023/10/11 10:09:59;;;;;;;24.50;19.73;;;;;;;17.66;91.69;101323.66;5113975;28;20099;-65
2023/10/11 10:12:31;;;;;;;28.48;21.52;;;;;;;17.63;92.08;101327.47;5114468;28;20032;-66
2023/10/11 10:15:03;;;;;;;28.33;21.75;;;;;;;17.63;91.99;101337.38;5114312;28;20024;-66
2023/10/11 10:17:31;;;;;;;29.80;23.67;;;;;;;17.60;91.47;101333.09;5095669;28;20457;-66
2023/10/11 10:20:00;;;;;;;29.05;22.83;;;;;;;17.62;91.75;101344.59;5095751;28;20165;-65
2023/10/11 10:22:32;;;;;;;31.50;23.73;;;;;;;17.58;92.40;101350.34;5114173;28;20062;-66
2023/10/11 10:25:18;;;;;;;32.38;24.45;;;;;;;17.56;92.62;101344.25;5112519;28;20023;-66
2023/10/11 10:27:45;;;;;;;31.80;23.73;;;;;;;17.46;93.24;101342.34;5095106;28;20055;-65
2023/10/11 10:30:21;;;;;;;36.40;25.10;;;;;;;17.46;93.06;101333.41;5113283;28;20098;-66
2023/10/11 10:33:22;;;;;;;35.33;25.00;;;;;;;17.45;94.01;101343.31;5113612;28;20039;-66
2023/10/11 10:35:48;;;;;;;31.42;24.05;;;;;;;17.35;93.48;101338.84;5103407;28;20573;-65
2023/10/11 10:38:14;;;;;;;33.13;25.63;;;;;;;17.41;93.63;101333.81;5106283;28;20038;-66
2023/10/11 10:40:45;;;;;;;34.13;24.00;;;;;;;17.30;94.69;101331.19;5080267;28;20028;-65
2023/10/11 10:43:19;;;;;;;34.42;22.30;;;;;;;17.36;95.00;101344.09;5111412;28;20509;-66
2023/10/11 10:45:52;;;;;;;35.70;24.85;;;;;;;17.38;94.91;101331.41;5112965;28;20420;-65
2023/10/11 10:48:23;;;;;;;32.95;23.83;;;;;;;17.41;95.06;101330.25;5090785;28;20023;-66
2023/10/11 10:50:54;;;;;;;34.95;23.75;;;;;;;17.40;95.12;101332.09;5094992;28;20032;-66
2023/10/11 10:53:20;;;;;;;31.85;23.25;;;;;;;17.38;95.21;101327.81;5111280;28;20419;-66
2023/10/11 10:55:46;;;;;;;33.58;25.48;;;;;;;17.34;95.69;101338.00;5093701;28;20119;-65
2023/10/11 10:58:19;;;;;;;37.03;24.80;;;;;;;17.35;95.79;101345.06;5112979;28;20127;-65
2023/10/11 11:00:51;;;;;;;36.17;24.30;;;;;;;17.41;95.25;101327.56;5091386;28;20107;-66
2023/10/11 11:03:22;;;;;;;33.75;24.13;;;;;;;17.37;96.07;101321.59;5092916;28;20038;-66
2023/10/11 11:05:58;;;;;;;32.53;24.33;;;;;;;17.44;96.33;101330.00;5103414;28;20101;-65
2023/10/11 11:08:31;;;;;;;33.80;23.38;;;;;;;17.48;95.94;101323.41;5112471;28;20031;-65
2023/10/11 11:11:18;;;;;;;31.90;24.48;;;;;;;17.49;95.63;101320.56;5094133;28;20015;-66
2023/10/11 11:13:45;;;;;;;29.35;23.70;;;;;;;17.57;95.73;101329.84;5101585;28;20031;-65
2023/10/11 11:16:22;;;;;;;32.65;23.98;;;;;;;17.54;95.27;101309.44;5112619;28;20059;-65
2023/10/11 11:18:47;;;;;;;32.70;23.42;;;;;;;17.61;95.08;101310.59;5113231;28;20036;-65
2023/10/11 11:21:23;;;;;;;31.55;22.88;;;;;;;17.62;95.17;101298.03;5094677;28;20015;-66
2023/10/11 11:23:50;;;;;;;35.25;21.48;;;;;;;17.66;95.01;101300.31;5110630;28;20061;-66
2023/10/11 11:26:21;;;;;;;28.92;21.70;;;;;;;17.70;94.75;101292.81;5112205;28;20099;-65
2023/10/11 11:28:47;;;;;;;28.63;22.05;;;;;;;17.75;95.19;101300.50;5111944;28;20077;-66
2023/10/11 11:33:48;;;;;;;30.13;21.48;;;;;;;17.67;94.67;101291.22;5112708;28;20467;-66
2023/10/11 11:36:40;;;;;;;34.78;22.13;;;;;;;17.70;95.10;101292.81;5112586;28;20031;-65
2023/10/11 11:41:53;;;;;;;28.63;21.67;;;;;;;17.74;94.49;101288.88;5112736;28;20035;-65
2023/10/11 11:44:22;;;;;;;32.27;21.30;;;;;;;17.73;94.55;101281.78;5112016;28;20029;-65
2023/10/11 11:46:49;;;;;;;29.08;22.05;;;;;;;17.69;95.03;101257.00;5112558;28;20030;-65
2023/10/11 11:49:26;;;;;;;30.63;21.92;;;;;;;17.83;95.54;101265.75;5094423;28;20463;-66
2023/10/11 11:51:55;;;;;;;26.92;20.40;;;;;;;17.83;94.16;101261.22;5092219;28;20024;-65
2023/10/11 11:54:28;;;;;;;31.23;21.00;;;;;;;17.89;94.11;101263.38;5091712;28;20505;-65
2023/10/11 11:56:54;;;;;;;24.48;19.90;;;;;;;17.91;93.75;101264.09;5090049;28;20131;-65
2023/10/11 11:59:29;;;;;;;26.38;20.45;;;;;;;17.93;94.38;101270.19;5091902;28;20031;-65
2023/10/11 12:01:59;;;;;;;28.50;19.48;;;;;;;17.87;93.85;101267.19;5090905;28;20024;-65
2023/10/11 12:04:29;;;;;;;29.42;20.83;;;;;;;17.85;93.06;101261.06;5091730;28;20038;-66
2023/10/11 12:07:04;;;;;;;28.27;20.35;;;;;;;17.90;93.56;101254.28;5090709;28;20024;-66
2023/10/11 12:09:34;;;;;;;25.92;19.95;;;;;;;18.05;93.01;101238.63;5090451;28;20031;-66
2023/10/11 12:12:05;;;;;;;26.02;20.00;;;;;;;18.23;92.00;101233.44;5091835;28;20099;-66
2023/10/11 12:14:37;;;;;;;30.73;18.90;;;;;;;18.77;90.71;101216.03;5090426;28;20024;-65
2023/10/11 12:17:09;;;;;;;24.90;17.52;;;;;;;19.46;86.46;101233.84;5091687;28;20395;-66
2023/10/11 12:19:44;;;;;;;23.55;16.35;;;;;;;20.15;82.87;101229.09;5091721;28;20020;-66
2023/10/11 12:22:13;;;;;;;22.38;16.48;;;;;;;20.83;79.11;101213.31;5091790;28;20499;-66
2023/10/11 12:24:44;;;;;;;;;;;;;;;21.71;78.27;101218.75;5091355;28;20031;-66
2023/10/11 12:27:12;;;;;;;21.33;14.50;;;;;;;21.58;73.75;101226.44;5091516;28;19911;-66
2023/10/11 12:29:40;;;;;;;22.50;14.52;;;;;;;22.03;71.01;101222.66;5091587;28;20069;-66
2023/10/11 12:32:07;;;;;;;23.67;13.85;;;;;;;22.17;70.45;101232.88;5091692;28;20027;-66
2023/10/11 12:34:36;;;;;;;25.65;14.10;;;;;;;22.14;70.22;101235.88;5091281;28;20414;-66
2023/10/11 12:37:02;;;;;;;19.42;13.82;;;;;;;21.90;71.00;101231.22;5091529;28;20016;-66
2023/10/11 12:39:33;;;;;;;23.95;13.60;;;;;;;21.57;72.32;101234.75;5091345;28;20577;-66